createdAt,value
2018-07-24T00:00:03.133Z,130
2018-07-24T00:01:04.333Z,129.5
2018-07-24T00:02:05.875Z,130
2018-07-24T00:03:07.394Z,129.5
2018-07-24T00:04:08.765Z,130
2018-07-24T00:05:10.143Z,129.5
2018-07-24T00:06:11.534Z,129
2018-07-24T00:07:12.909Z,130
2018-07-24T00:08:14.276Z,129.5
2018-07-24T00:09:15.646Z,129.5
2018-07-24T00:10:17.024Z,129.5
2018-07-24T00:11:18.077Z,129.5
2018-07-24T00:12:19.614Z,130
2018-07-24T00:13:21.179Z,130
2018-07-24T00:14:22.735Z,130
2018-07-24T00:15:24.096Z,129
2018-07-24T00:16:25.641Z,130
2018-07-24T00:17:27.208Z,131
2018-07-24T00:18:28.574Z,130
2018-07-24T00:19:30.108Z,130
2018-07-24T00:20:31.648Z,129.5
2018-07-24T00:21:33.032Z,129.5
2018-07-24T00:22:34.240Z,129.5
2018-07-24T00:23:35.747Z,129.5
2018-07-24T00:24:37.285Z,130.5
2018-07-24T00:25:38.653Z,130
2018-07-24T00:26:40.025Z,130
2018-07-24T00:27:41.610Z,130.5
2018-07-24T00:28:42.636Z,130
2018-07-24T00:29:44.164Z,130.5
2018-07-24T00:30:45.705Z,130
2018-07-24T00:31:47.075Z,130.5
2018-07-24T00:32:48.455Z,129
2018-07-24T00:33:50.009Z,130
2018-07-24T00:34:51.388Z,130
2018-07-24T00:35:52.575Z,130.5
2018-07-24T00:36:53.787Z,130
2018-07-24T00:37:55.158Z,130.5
2018-07-24T00:38:56.685Z,130
2018-07-24T00:39:58.095Z,129.5
2018-07-24T00:40:59.679Z,130.5
2018-07-24T00:42:01.206Z,130
2018-07-24T00:43:02.588Z,129.5
2018-07-24T00:44:03.796Z,129.5
2018-07-24T00:45:05.344Z,130.5
2018-07-24T00:46:06.727Z,129.5
2018-07-24T00:47:07.920Z,129.5
2018-07-24T00:48:09.456Z,129.5
2018-07-24T00:49:11.002Z,130.5
2018-07-24T00:50:12.378Z,130
2018-07-24T00:51:13.921Z,130.5
2018-07-24T00:52:15.462Z,130
2018-07-24T00:53:16.985Z,129.5
2018-07-24T00:54:19.094Z,130
2018-07-24T00:55:20.320Z,130
2018-07-24T00:56:21.848Z,130.5
2018-07-24T00:57:23.387Z,129.5
2018-07-24T00:58:24.922Z,129.5
2018-07-24T00:59:26.127Z,130
2018-07-24T01:00:27.508Z,130
2018-07-24T01:01:28.723Z,129.5
2018-07-24T01:02:29.917Z,130
2018-07-24T01:03:31.306Z,130
2018-07-24T01:04:32.680Z,130
2018-07-24T01:05:34.229Z,130
2018-07-24T01:06:35.756Z,130
2018-07-24T01:07:36.948Z,130
2018-07-24T01:08:38.799Z,130
2018-07-24T01:09:40.190Z,129.5
2018-07-24T01:10:41.283Z,129.5
2018-07-24T01:11:42.338Z,130
2018-07-24T01:12:43.759Z,130
2018-07-24T01:13:45.134Z,129.5
2018-07-24T01:14:46.481Z,130
2018-07-24T01:15:48.011Z,130
2018-07-24T01:16:49.391Z,130
2018-07-24T01:17:50.926Z,130.5
2018-07-24T01:18:52.268Z,129.5
2018-07-24T01:19:53.788Z,129.5
2018-07-24T01:20:55.349Z,129.5
2018-07-24T01:21:56.707Z,129.5
2018-07-24T01:22:58.235Z,130
2018-07-24T01:23:59.444Z,130
2018-07-24T01:25:00.975Z,130
2018-07-24T01:26:02.524Z,130.5
2018-07-24T01:27:03.901Z,130.5
2018-07-24T01:28:05.438Z,130
2018-07-24T01:29:06.985Z,130.5
2018-07-24T01:30:08.510Z,130
2018-07-24T01:31:09.894Z,130
2018-07-24T01:32:11.105Z,130
2018-07-24T01:33:12.491Z,130.5
2018-07-24T01:34:13.862Z,130.5
2018-07-24T01:35:15.249Z,130.5
2018-07-24T01:36:16.643Z,131
2018-07-24T01:37:18.049Z,130.5
2018-07-24T01:38:19.601Z,130
2018-07-24T01:39:20.970Z,131
2018-07-24T01:40:22.179Z,128.5
2018-07-24T01:41:23.723Z,129.5
2018-07-24T01:42:24.923Z,128.5
2018-07-24T01:43:26.305Z,129.5
2018-07-24T01:44:27.679Z,128.5
2018-07-24T01:45:29.220Z,131
2018-07-24T01:46:30.748Z,131
2018-07-24T01:47:32.287Z,131.5
2018-07-24T01:48:33.664Z,131.5
2018-07-24T01:49:35.044Z,131.5
2018-07-24T01:50:36.426Z,131.5
2018-07-24T01:51:37.795Z,131
2018-07-24T01:52:39.326Z,131.5
2018-07-24T01:53:40.870Z,131
2018-07-24T01:54:42.408Z,131
2018-07-24T01:55:43.965Z,131.5
2018-07-24T01:56:45.177Z,131
2018-07-24T01:57:46.565Z,131
2018-07-24T01:58:47.934Z,131
2018-07-24T01:59:49.156Z,131
2018-07-24T02:00:50.705Z,131
2018-07-24T02:01:52.255Z,131
2018-07-24T02:02:53.305Z,131.5
2018-07-24T02:03:54.842Z,131
2018-07-24T02:04:56.395Z,131
2018-07-24T02:05:57.958Z,131
2018-07-24T02:06:59.556Z,131.5
2018-07-24T02:08:00.790Z,131
2018-07-24T02:09:02.347Z,131
2018-07-24T02:10:03.744Z,131
2018-07-24T02:11:05.123Z,131
2018-07-24T02:12:06.512Z,131.5
2018-07-24T02:13:07.921Z,132
2018-07-24T02:14:09.292Z,132
2018-07-24T02:15:10.829Z,131.5
2018-07-24T02:16:12.221Z,131.5
2018-07-24T02:17:13.445Z,132
2018-07-24T02:18:15.002Z,131.5
2018-07-24T02:19:16.389Z,131.5
2018-07-24T02:20:17.950Z,131.5
2018-07-24T02:21:19.180Z,131
2018-07-24T02:22:20.555Z,131.5
2018-07-24T02:23:22.116Z,131
2018-07-24T02:24:23.487Z,131.5
2018-07-24T02:25:24.876Z,131.5
2018-07-24T02:26:26.096Z,131.5
2018-07-24T02:27:27.332Z,131.5
2018-07-24T02:28:28.721Z,131.5
2018-07-24T02:29:30.114Z,131.5
2018-07-24T02:30:31.674Z,131
2018-07-24T02:31:33.051Z,131.5
2018-07-24T02:32:33.949Z,131
2018-07-24T02:33:35.355Z,131
2018-07-24T02:34:36.574Z,131.5
2018-07-24T02:35:37.638Z,131
2018-07-24T02:36:39.012Z,131
2018-07-24T02:37:40.396Z,131
2018-07-24T02:38:41.951Z,130.5
2018-07-24T02:39:43.351Z,131
2018-07-24T02:40:44.725Z,130.5
2018-07-24T02:41:45.946Z,130.5
2018-07-24T02:42:47.358Z,130.5
2018-07-24T02:43:48.579Z,131
2018-07-24T02:44:49.957Z,130
2018-07-24T02:45:51.347Z,131
2018-07-24T02:46:52.884Z,131
2018-07-24T02:47:54.253Z,130.5
2018-07-24T02:48:55.809Z,130.5
2018-07-24T02:49:57.355Z,130.5
2018-07-24T02:50:58.749Z,130.5
2018-07-24T02:52:00.297Z,131.5
2018-07-24T02:53:01.360Z,130
2018-07-24T02:54:02.753Z,131
2018-07-24T02:55:04.182Z,130.5
2018-07-24T02:56:05.740Z,130.5
2018-07-24T02:57:07.284Z,131
2018-07-24T02:58:08.680Z,130.5
2018-07-24T02:59:10.230Z,130.5
2018-07-24T03:00:11.447Z,130.5
2018-07-24T03:01:13.080Z,131.5
2018-07-24T03:02:14.466Z,130.5
2018-07-24T03:03:15.856Z,131
2018-07-24T03:04:17.430Z,130.5
2018-07-24T03:05:18.805Z,131
2018-07-24T03:06:20.210Z,131
2018-07-24T03:07:21.588Z,131
2018-07-24T03:08:22.951Z,131
2018-07-24T03:09:24.004Z,131
2018-07-24T03:10:25.065Z,131.5
2018-07-24T03:11:26.613Z,130
2018-07-24T03:12:28.159Z,131
2018-07-24T03:13:29.216Z,131.5
2018-07-24T03:14:30.654Z,131.5
2018-07-24T03:15:32.059Z,131
2018-07-24T03:16:33.617Z,131
2018-07-24T03:17:35.187Z,131
2018-07-24T03:18:36.747Z,130.5
2018-07-24T03:19:38.146Z,129.5
2018-07-24T03:20:39.742Z,130.5
2018-07-24T03:21:41.145Z,130.5
2018-07-24T03:22:42.546Z,129.5
2018-07-24T03:23:43.965Z,130.5
2018-07-24T03:24:45.587Z,130.5
2018-07-24T03:25:47.197Z,131
2018-07-24T03:26:48.592Z,130
2018-07-24T03:27:50.157Z,130.5
2018-07-24T03:28:51.702Z,130.5
2018-07-24T03:29:53.069Z,130.5
2018-07-24T03:30:54.456Z,131
2018-07-24T03:31:55.844Z,131
2018-07-24T03:32:57.378Z,131
2018-07-24T03:33:58.429Z,130
2018-07-24T03:34:59.970Z,130
2018-07-24T03:36:01.355Z,130
2018-07-24T03:37:02.916Z,130.5
2018-07-24T03:38:04.304Z,130.5
2018-07-24T03:39:05.836Z,130.5
2018-07-24T03:40:07.217Z,130.5
2018-07-24T03:41:08.428Z,130
2018-07-24T03:42:09.835Z,130.5
2018-07-24T03:43:11.387Z,130.5
2018-07-24T03:44:12.766Z,130.5
2018-07-24T03:45:14.145Z,130
2018-07-24T03:46:15.715Z,130.5
2018-07-24T03:47:17.286Z,130.5
2018-07-24T03:48:18.683Z,130.5
2018-07-24T03:49:19.741Z,130.5
2018-07-24T03:50:21.115Z,130
2018-07-24T03:51:22.672Z,130.5
2018-07-24T03:52:24.075Z,130.5
2018-07-24T03:53:25.621Z,129.5
2018-07-24T03:54:26.997Z,130
2018-07-24T03:55:28.385Z,129.5
2018-07-24T03:56:29.762Z,129.5
2018-07-24T03:57:30.818Z,129.5
2018-07-24T03:58:32.205Z,129
2018-07-24T03:59:33.416Z,129.5
2018-07-24T04:00:34.638Z,129
2018-07-24T04:01:35.864Z,129.5
2018-07-24T04:02:37.415Z,128.5
2018-07-24T04:03:38.801Z,129
2018-07-24T04:04:40.365Z,129
2018-07-24T04:05:41.738Z,129.5
2018-07-24T04:06:42.957Z,129.5
2018-07-24T04:07:44.197Z,129
2018-07-24T04:08:45.739Z,128.5
2018-07-24T04:09:46.949Z,129
2018-07-24T04:10:48.332Z,129
2018-07-24T04:11:49.532Z,129
2018-07-24T04:12:51.089Z,128.5
2018-07-24T04:13:52.639Z,129
2018-07-24T04:14:54.025Z,128.5
2018-07-24T04:15:55.413Z,129
2018-07-24T04:16:56.797Z,129
2018-07-24T04:17:58.406Z,129
2018-07-24T04:18:59.620Z,129
2018-07-24T04:20:01.148Z,128.5
2018-07-24T04:21:02.765Z,129
2018-07-24T04:22:04.316Z,129
2018-07-24T04:23:05.707Z,128.5
2018-07-24T04:24:07.105Z,128.5
2018-07-24T04:25:08.506Z,129
2018-07-24T04:26:09.896Z,128.5
2018-07-24T04:27:11.307Z,128.1
2018-07-24T04:28:12.527Z,129
2018-07-24T04:29:14.080Z,128.1
2018-07-24T04:30:15.465Z,128.5
2018-07-24T04:31:17.006Z,128.5
2018-07-24T04:32:18.409Z,128.5
2018-07-24T04:33:19.775Z,129
2018-07-24T04:34:21.153Z,128.5
2018-07-24T04:35:22.701Z,128.5
2018-07-24T04:36:24.237Z,129
2018-07-24T04:37:25.619Z,128.5
2018-07-24T04:38:27.180Z,129
2018-07-24T04:39:28.572Z,128.5
2018-07-24T04:40:29.807Z,129
2018-07-24T04:41:31.368Z,128.1
2018-07-24T04:42:32.749Z,128.5
2018-07-24T04:43:34.301Z,129
2018-07-24T04:44:35.866Z,129
2018-07-24T04:45:37.385Z,128.1
2018-07-24T04:46:38.763Z,128.1
2018-07-24T04:47:40.156Z,128.5
2018-07-24T04:48:41.716Z,128.5
2018-07-24T04:49:43.280Z,128.5
2018-07-24T04:50:44.825Z,128.5
2018-07-24T04:51:46.047Z,129
2018-07-24T04:52:47.592Z,128.5
2018-07-24T04:53:49.154Z,128.5
2018-07-24T04:54:50.520Z,128.5
2018-07-24T04:55:51.743Z,128.5
2018-07-24T04:56:53.176Z,128.5
2018-07-24T04:57:54.381Z,128.1
2018-07-24T04:58:55.935Z,128.5
2018-07-24T04:59:57.147Z,128.5
2018-07-24T05:00:58.521Z,128.1
2018-07-24T05:01:59.911Z,128.1
2018-07-24T05:03:01.283Z,128.5
2018-07-24T05:04:02.663Z,128.5
2018-07-24T05:05:04.046Z,128.1
2018-07-24T05:06:05.589Z,128.5
2018-07-24T05:07:06.996Z,128.1
2018-07-24T05:08:08.538Z,128.1
2018-07-24T05:09:09.916Z,128.1
2018-07-24T05:10:11.422Z,128.5
2018-07-24T05:11:12.906Z,128.5
2018-07-24T05:12:13.959Z,128.1
2018-07-24T05:13:15.343Z,129
2018-07-24T05:14:16.728Z,128.5
2018-07-24T05:15:18.103Z,128.1
2018-07-24T05:16:19.474Z,127.6
2018-07-24T05:17:21.015Z,128.5
2018-07-24T05:18:22.220Z,128.5
2018-07-24T05:19:23.432Z,128.1
2018-07-24T05:20:24.813Z,128.5
2018-07-24T05:21:26.197Z,128.5
2018-07-24T05:22:27.745Z,128.1
2018-07-24T05:23:29.360Z,128.1
2018-07-24T05:24:30.958Z,128.5
2018-07-24T05:25:32.498Z,128.1
2018-07-24T05:26:34.049Z,128.5
2018-07-24T05:27:35.450Z,128.1
2018-07-24T05:28:37.016Z,128.5
2018-07-24T05:29:38.399Z,128.5
2018-07-24T05:30:39.947Z,128.1
2018-07-24T05:31:41.501Z,128.1
2018-07-24T05:32:43.059Z,128.1
2018-07-24T05:33:44.605Z,128.1
2018-07-24T05:34:46.156Z,128.1
2018-07-24T05:35:47.534Z,128.5
2018-07-24T05:36:48.931Z,128.1
2018-07-24T05:37:50.491Z,128.1
2018-07-24T05:38:52.061Z,128.1
2018-07-24T05:39:53.605Z,128.5
2018-07-24T05:40:54.829Z,128.1
2018-07-24T05:41:56.200Z,128.1
2018-07-24T05:42:57.598Z,128.1
2018-07-24T05:43:59.179Z,128.5
2018-07-24T05:45:00.722Z,127.6
2018-07-24T05:46:02.285Z,128.1
2018-07-24T05:47:03.682Z,128.1
2018-07-24T05:48:05.225Z,127.6
2018-07-24T05:49:06.620Z,127.6
2018-07-24T05:50:07.999Z,127.6
2018-07-24T05:51:09.390Z,128.1
2018-07-24T05:52:10.936Z,128.5
2018-07-24T05:53:12.497Z,128.1
2018-07-24T05:54:14.043Z,128.1
2018-07-24T05:55:15.591Z,128.5
2018-07-24T05:56:17.168Z,128.1
2018-07-24T05:57:18.572Z,127.6
2018-07-24T05:58:20.146Z,128.1
2018-07-24T05:59:21.676Z,128.1
2018-07-24T06:00:23.234Z,128.1
2018-07-24T06:01:24.789Z,128.1
2018-07-24T06:02:26.175Z,128.5
2018-07-24T06:03:27.722Z,128.1
2018-07-24T06:04:29.272Z,128.1
2018-07-24T06:05:30.506Z,128.1
2018-07-24T06:06:32.041Z,128.5
2018-07-24T06:07:33.640Z,127.6
2018-07-24T06:08:35.175Z,127.6
2018-07-24T06:09:36.556Z,128.1
2018-07-24T06:10:37.951Z,127.6
2018-07-24T06:11:39.343Z,127.6
2018-07-24T06:12:40.401Z,127.6
2018-07-24T06:13:41.937Z,127.6
2018-07-24T06:14:43.314Z,127.6
2018-07-24T06:15:44.876Z,128.5
2018-07-24T06:16:46.610Z,127.6
2018-07-24T06:17:47.985Z,127.6
2018-07-24T06:18:49.540Z,128.5
2018-07-24T06:19:51.120Z,128.1
2018-07-24T06:20:52.667Z,127.6
2018-07-24T06:21:54.588Z,128.1
2018-07-24T06:22:56.410Z,128.1
2018-07-24T06:23:57.966Z,128.1
2018-07-24T06:24:59.526Z,128.1
2018-07-24T06:26:01.118Z,128.1
2018-07-24T06:27:02.510Z,128.1
2018-07-24T06:28:04.069Z,127.6
2018-07-24T06:29:05.456Z,128.1
2018-07-24T06:30:06.833Z,128.1
2018-07-24T06:31:08.208Z,128.1
2018-07-24T06:32:09.760Z,128.5
2018-07-24T06:33:11.136Z,127.6
2018-07-24T06:34:12.673Z,127.1
2018-07-24T06:35:14.225Z,126.6
2018-07-24T06:36:15.615Z,127.6
2018-07-24T06:37:17.011Z,128.1
2018-07-24T06:38:18.408Z,127.6
2018-07-24T06:39:19.980Z,127.6
2018-07-24T06:40:21.372Z,128.1
2018-07-24T06:41:22.595Z,128.1
2018-07-24T06:42:24.149Z,128.1
2018-07-24T06:43:25.543Z,127.6
2018-07-24T06:44:26.994Z,128.5
2018-07-24T06:45:28.660Z,128.1
2018-07-24T06:46:30.196Z,128.1
2018-07-24T06:47:31.579Z,128.1
2018-07-24T06:48:33.127Z,128.1
2018-07-24T06:49:34.692Z,128.5
2018-07-24T06:50:36.060Z,127.6
2018-07-24T06:51:38.058Z,127.6
2018-07-24T06:52:40.143Z,128.1
2018-07-24T06:53:41.530Z,128.5
2018-07-24T06:54:43.083Z,128.1
2018-07-24T06:55:44.311Z,128.1
2018-07-24T06:56:45.874Z,128.1
2018-07-24T06:57:47.256Z,128.1
2018-07-24T06:58:48.645Z,127.6
2018-07-24T06:59:50.195Z,128.1
2018-07-24T07:00:51.720Z,128.1
2018-07-24T07:01:53.092Z,127.6
2018-07-24T07:02:54.632Z,127.1
2018-07-24T07:03:56.021Z,127.6
2018-07-24T07:04:57.822Z,127.6
2018-07-24T07:05:59.492Z,127.6
2018-07-24T07:07:00.700Z,128.1
2018-07-24T07:08:02.075Z,127.1
2018-07-24T07:09:03.477Z,127.6
2018-07-24T07:10:04.885Z,128.1
2018-07-24T07:11:06.313Z,128.1
2018-07-24T07:12:07.699Z,127.6
2018-07-24T07:13:09.443Z,128.1
2018-07-24T07:14:11.012Z,127.6
2018-07-24T07:15:12.396Z,127.6
2018-07-24T07:16:13.897Z,128.1
2018-07-24T07:17:15.265Z,128.1
2018-07-24T07:18:16.476Z,127.6
2018-07-24T07:19:18.026Z,127.6
2018-07-24T07:20:19.413Z,128.1
2018-07-24T07:21:20.946Z,128.5
2018-07-24T07:22:22.494Z,128.1
2018-07-24T07:23:24.259Z,127.6
2018-07-24T07:24:26.059Z,127.6
2018-07-24T07:25:27.629Z,128.1
2018-07-24T07:26:29.008Z,128.5
2018-07-24T07:27:30.403Z,127.6
2018-07-24T07:28:31.962Z,128.1
2018-07-24T07:29:33.359Z,128.1
2018-07-24T07:30:34.732Z,128.1
2018-07-24T07:31:36.265Z,128.1
2018-07-24T07:32:38.079Z,128.1
2018-07-24T07:33:39.945Z,128.1
2018-07-24T07:34:41.505Z,127.6
2018-07-24T07:35:42.725Z,127.6
2018-07-24T07:36:44.108Z,127.6
2018-07-24T07:37:45.521Z,128.1
2018-07-24T07:38:46.910Z,127.6
2018-07-24T07:39:48.316Z,127.1
2018-07-24T07:40:49.729Z,128.1
2018-07-24T07:41:51.117Z,127.6
2018-07-24T07:42:52.332Z,127.6
2018-07-24T07:43:53.902Z,127.1
2018-07-24T07:44:55.354Z,127.6
2018-07-24T07:45:56.762Z,128.1
2018-07-24T07:46:58.157Z,127.6
2018-07-24T07:47:59.725Z,127.6
2018-07-24T07:49:01.304Z,127.6
2018-07-24T07:50:02.362Z,127.6
2018-07-24T07:51:03.920Z,127.6
2018-07-24T07:52:05.310Z,127.6
2018-07-24T07:53:06.523Z,127.6
2018-07-24T07:54:08.082Z,127.6
2018-07-24T07:55:09.480Z,127.6
2018-07-24T07:56:11.044Z,128.1
2018-07-24T07:57:12.426Z,127.6
2018-07-24T07:58:13.645Z,127.6
2018-07-24T07:59:15.198Z,127.6
2018-07-24T08:00:16.436Z,128.1
2018-07-24T08:01:17.798Z,127.1
2018-07-24T08:02:19.182Z,128.1
2018-07-24T08:03:20.768Z,127.6
2018-07-24T08:04:22.607Z,128.1
2018-07-24T08:05:24.470Z,127.6
2018-07-24T08:06:26.017Z,127.6
2018-07-24T08:07:27.578Z,128.1
2018-07-24T08:08:29.133Z,127.6
2018-07-24T08:09:30.510Z,127.6
2018-07-24T08:10:31.916Z,127.6
2018-07-24T08:11:33.305Z,127.1
2018-07-24T08:12:34.879Z,127.6
2018-07-24T08:13:36.107Z,128.1
2018-07-24T08:14:37.664Z,127.6
2018-07-24T08:15:39.224Z,127.1
2018-07-24T08:16:40.620Z,127.1
2018-07-24T08:17:41.841Z,127.1
2018-07-24T08:18:43.055Z,127.6
2018-07-24T08:19:44.606Z,127.1
2018-07-24T08:20:45.997Z,127.6
2018-07-24T08:21:47.555Z,127.6
2018-07-24T08:22:49.085Z,127.1
2018-07-24T08:23:50.480Z,127.6
2018-07-24T08:24:51.533Z,127.6
2018-07-24T08:25:53.094Z,127.6
2018-07-24T08:26:54.464Z,128.1
2018-07-24T08:27:55.937Z,127.1
2018-07-24T08:28:57.803Z,127.6
2018-07-24T08:29:59.013Z,127.6
2018-07-24T08:31:00.553Z,127.6
2018-07-24T08:32:02.111Z,128.1
2018-07-24T08:33:03.491Z,128.1
2018-07-24T08:34:05.045Z,127.1
2018-07-24T08:35:05.933Z,127.1
2018-07-24T08:36:07.151Z,128.1
2018-07-24T08:37:08.716Z,128.5
2018-07-24T08:38:10.087Z,128.5
2018-07-24T08:39:11.504Z,129
2018-07-24T08:40:12.886Z,128.1
2018-07-24T08:41:14.246Z,128.5
2018-07-24T08:42:15.455Z,128.5
2018-07-24T08:43:16.846Z,128.1
2018-07-24T08:44:18.395Z,128.5
2018-07-24T08:45:19.960Z,128.1
2018-07-24T08:46:21.374Z,129
2018-07-24T08:47:22.930Z,128.5
2018-07-24T08:48:24.156Z,128.5
2018-07-24T08:49:25.563Z,128.5
2018-07-24T08:50:27.112Z,128.1
2018-07-24T08:51:28.674Z,127.6
2018-07-24T08:52:30.700Z,128.1
2018-07-24T08:53:34.016Z,128.5
2018-07-24T08:54:37.734Z,128.5
2018-07-24T08:55:42.029Z,128.5
2018-07-24T08:56:45.022Z,128.5
2018-07-24T08:57:46.872Z,128.1
2018-07-24T08:58:48.646Z,128.1
2018-07-24T08:59:49.869Z,128.1
2018-07-24T09:00:51.437Z,128.1
2018-07-24T09:01:53.012Z,128.5
2018-07-24T09:02:54.450Z,128.5
2018-07-24T09:03:56.016Z,128.5
2018-07-24T09:04:57.250Z,129
2018-07-24T09:05:58.643Z,128.5
2018-07-24T09:06:59.892Z,128.5
2018-07-24T09:08:01.445Z,128.5
2018-07-24T09:09:02.855Z,128.5
2018-07-24T09:10:04.581Z,127.6
2018-07-24T09:11:06.096Z,128.5
2018-07-24T09:12:07.627Z,128.5
2018-07-24T09:13:09.019Z,128.5
2018-07-24T09:14:10.582Z,128.5
2018-07-24T09:15:12.141Z,128.1
2018-07-24T09:16:13.683Z,128.5
2018-07-24T09:17:15.062Z,128.5
2018-07-24T09:18:16.446Z,128.5
2018-07-24T09:19:17.661Z,127.6
2018-07-24T09:20:19.064Z,128.1
2018-07-24T09:21:20.445Z,128.1
2018-07-24T09:22:21.822Z,128.1
2018-07-24T09:23:23.389Z,128.5
2018-07-24T09:24:24.950Z,128.5
2018-07-24T09:25:26.513Z,128.5
2018-07-24T09:26:27.890Z,128.1
2018-07-24T09:27:29.111Z,128.5
2018-07-24T09:28:30.671Z,129
2018-07-24T09:29:32.049Z,128.5
2018-07-24T09:30:33.548Z,128.5
2018-07-24T09:31:35.212Z,128.5
2018-07-24T09:32:36.616Z,128.5
2018-07-24T09:33:38.175Z,128.5
2018-07-24T09:34:39.724Z,128.5
2018-07-24T09:35:41.109Z,128.5
2018-07-24T09:36:42.386Z,128.1
2018-07-24T09:37:43.764Z,128.1
2018-07-24T09:38:45.135Z,128.5
2018-07-24T09:39:46.521Z,128.5
2018-07-24T09:40:48.068Z,128.1
2018-07-24T09:41:49.285Z,128.5
2018-07-24T09:42:50.682Z,128.1
2018-07-24T09:43:51.896Z,128.5
2018-07-24T09:44:53.455Z,128.1
2018-07-24T09:45:55.197Z,128.1
2018-07-24T09:46:56.979Z,128.5
2018-07-24T09:47:58.364Z,128.1
2018-07-24T09:48:59.426Z,128.5
2018-07-24T09:50:00.811Z,127.6
2018-07-24T09:51:02.359Z,128.1
2018-07-24T09:52:03.786Z,128.1
2018-07-24T09:53:05.358Z,128.5
2018-07-24T09:54:06.910Z,128.5
2018-07-24T09:55:08.137Z,127.6
2018-07-24T09:56:09.667Z,128.1
2018-07-24T09:57:11.224Z,128.5
2018-07-24T09:58:12.773Z,128.1
2018-07-24T09:59:14.301Z,128.5
2018-07-24T10:00:15.396Z,128.5
2018-07-24T10:01:16.952Z,128.1
2018-07-24T10:02:18.206Z,128.1
2018-07-24T10:03:19.422Z,128.1
2018-07-24T10:04:20.973Z,128.1
2018-07-24T10:05:22.577Z,128.1
2018-07-24T10:06:24.350Z,128.1
2018-07-24T10:07:25.928Z,128.1
2018-07-24T10:08:27.488Z,129
2018-07-24T10:09:28.915Z,127.6
2018-07-24T10:10:30.475Z,128.5
2018-07-24T10:11:31.864Z,128.5
2018-07-24T10:12:33.315Z,128.5
2018-07-24T10:13:34.932Z,128.5
2018-07-24T10:14:36.155Z,128.5
2018-07-24T10:15:37.550Z,128.5
2018-07-24T10:16:39.555Z,128.5
2018-07-24T10:17:41.151Z,128.1
2018-07-24T10:18:42.736Z,128.1
2018-07-24T10:19:44.130Z,128.5
2018-07-24T10:20:45.343Z,127.6
2018-07-24T10:21:46.744Z,128.5
2018-07-24T10:22:48.313Z,128.1
2018-07-24T10:23:49.877Z,127.6
2018-07-24T10:24:51.443Z,128.5
2018-07-24T10:25:52.990Z,128.5
2018-07-24T10:26:54.380Z,128.5
2018-07-24T10:27:55.940Z,128.1
2018-07-24T10:28:57.175Z,128.5
2018-07-24T10:29:58.732Z,128.5
2018-07-24T10:31:00.269Z,128.5
2018-07-24T10:32:01.675Z,128.1
2018-07-24T10:33:03.085Z,127.6
2018-07-24T10:34:04.863Z,128.5
2018-07-24T10:35:06.406Z,128.1
2018-07-24T10:36:07.618Z,128.5
2018-07-24T10:37:08.837Z,128.5
2018-07-24T10:38:10.406Z,128.1
2018-07-24T10:39:11.619Z,128.1
2018-07-24T10:40:13.182Z,128.5
2018-07-24T10:41:14.415Z,128.1
2018-07-24T10:42:15.986Z,128.1
2018-07-24T10:43:17.580Z,127.6
2018-07-24T10:44:19.174Z,128.1
2018-07-24T10:45:20.728Z,128.5
2018-07-24T10:46:22.295Z,128.1
2018-07-24T10:47:23.868Z,127.6
2018-07-24T10:48:25.284Z,128.1
2018-07-24T10:49:26.981Z,128.5
2018-07-24T10:50:28.587Z,128.1
2018-07-24T10:51:30.153Z,127.6
2018-07-24T10:52:31.599Z,128.5
2018-07-24T10:53:33.204Z,128.5
2018-07-24T10:54:34.808Z,128.1
2018-07-24T10:55:36.405Z,128.5
2018-07-24T10:56:38.005Z,128.1
2018-07-24T10:57:39.399Z,128.1
2018-07-24T10:58:40.837Z,127.6
2018-07-24T10:59:42.440Z,128.1
2018-07-24T11:00:44.036Z,128.1
2018-07-24T11:01:45.613Z,128.5
2018-07-24T11:02:47.193Z,128.1
2018-07-24T11:03:48.630Z,128.1
2018-07-24T11:04:50.199Z,128.1
2018-07-24T11:05:51.786Z,128.1
2018-07-24T11:06:53.185Z,128.1
2018-07-24T11:07:54.743Z,128.1
2018-07-24T11:08:56.287Z,128.5
2018-07-24T11:09:57.837Z,128.5
2018-07-24T11:10:59.422Z,128.1
2018-07-24T11:12:01.107Z,128.5
2018-07-24T11:13:02.690Z,128.1
2018-07-24T11:14:04.244Z,128.1
2018-07-24T11:15:05.799Z,128.1
2018-07-24T11:16:07.184Z,128.1
2018-07-24T11:17:08.585Z,128.1
2018-07-24T11:18:10.147Z,128.5
2018-07-24T11:19:11.728Z,127.6
2018-07-24T11:20:13.270Z,128.1
2018-07-24T11:21:14.506Z,128.5
2018-07-24T11:22:16.259Z,128.1
2018-07-24T11:23:18.444Z,128.1
2018-07-24T11:24:20.493Z,128.5
2018-07-24T11:25:22.105Z,128.1
2018-07-24T11:26:23.703Z,128.5
2018-07-24T11:27:25.259Z,128.5
2018-07-24T11:28:27.362Z,128.5
2018-07-24T11:29:29.244Z,129
2018-07-24T11:30:30.824Z,128.1
2018-07-24T11:31:31.901Z,127.6
2018-07-24T11:32:33.519Z,128.1
2018-07-24T11:33:35.425Z,128.5
2018-07-24T11:34:36.969Z,128.5
2018-07-24T11:35:38.970Z,127.6
2018-07-24T11:36:40.999Z,128.1
2018-07-24T11:37:42.252Z,128.5
2018-07-24T11:38:44.190Z,128.1
2018-07-24T11:39:45.763Z,128.5
2018-07-24T11:40:47.361Z,128.5
2018-07-24T11:41:48.600Z,127.6
2018-07-24T11:42:50.170Z,128.1
2018-07-24T11:43:51.603Z,128.1
2018-07-24T11:44:53.027Z,128.1
2018-07-24T11:45:54.596Z,128.5
2018-07-24T11:46:56.179Z,128.1
2018-07-24T11:47:57.581Z,128.1
2018-07-24T11:48:59.170Z,128.1
2018-07-24T11:50:00.764Z,128.1
2018-07-24T11:51:02.181Z,127.6
2018-07-24T11:52:03.777Z,128.1
2018-07-24T11:53:05.202Z,127.6
2018-07-24T11:54:06.779Z,128.1
2018-07-24T11:55:08.353Z,127.6
2018-07-24T11:56:09.935Z,127.6
2018-07-24T11:57:11.604Z,128.1
2018-07-24T11:58:13.174Z,128.1
2018-07-24T11:59:14.755Z,128.1
2018-07-24T12:00:16.357Z,128.1
2018-07-24T12:01:17.935Z,127.6
2018-07-24T12:02:19.524Z,127.6
2018-07-24T12:03:20.918Z,128.1
2018-07-24T12:04:22.352Z,127.6
2018-07-24T12:05:23.914Z,128.1
2018-07-24T12:06:25.145Z,127.6
2018-07-24T12:07:26.551Z,128.5
2018-07-24T12:08:28.109Z,128.5
2018-07-24T12:09:29.655Z,127.6
2018-07-24T12:10:31.258Z,128.5
2018-07-24T12:11:33.079Z,128.1
2018-07-24T12:12:34.522Z,128.5
2018-07-24T12:13:36.084Z,128.5
2018-07-24T12:14:37.840Z,128.1
2018-07-24T12:15:39.442Z,127.6
2018-07-24T12:16:40.997Z,127.6
2018-07-24T12:17:42.554Z,127.6
2018-07-24T12:18:44.103Z,127.6
2018-07-24T12:19:45.505Z,127.6
2018-07-24T12:20:46.914Z,126.1
2018-07-24T12:21:48.318Z,126.1
2018-07-24T12:22:49.717Z,126.6
2018-07-24T12:23:50.925Z,126.1
2018-07-24T12:24:52.320Z,126.1
2018-07-24T12:25:53.898Z,126.1
2018-07-24T12:26:55.508Z,126.1
2018-07-24T12:27:56.902Z,126.1
2018-07-24T12:28:58.307Z,126.1
2018-07-24T12:29:59.725Z,126.1
2018-07-24T12:31:01.286Z,125.6
2018-07-24T12:32:02.521Z,126.1
2018-07-24T12:33:03.754Z,126.1
2018-07-24T12:34:05.316Z,125.6
2018-07-24T12:35:06.885Z,126.1
2018-07-24T12:36:09.349Z,126.1
2018-07-24T12:37:10.670Z,126.1
2018-07-24T12:38:12.259Z,126.6
2018-07-24T12:39:13.848Z,126.6
2018-07-24T12:40:15.430Z,128.1
2018-07-24T12:41:16.668Z,128.1
2018-07-24T12:42:18.247Z,128.5
2018-07-24T12:43:19.813Z,128.5
2018-07-24T12:44:21.048Z,128.1
2018-07-24T12:45:22.631Z,128.1
2018-07-24T12:46:24.242Z,128.5
2018-07-24T12:47:25.647Z,128.1
2018-07-24T12:48:27.038Z,127.6
2018-07-24T12:49:28.617Z,128.1
2018-07-24T12:50:29.876Z,127.6
2018-07-24T12:51:31.259Z,127.1
2018-07-24T12:52:33.099Z,127.6
2018-07-24T12:53:34.705Z,128.1
2018-07-24T12:54:36.265Z,127.6
2018-07-24T12:55:37.833Z,127.6
2018-07-24T12:56:39.375Z,125.6
2018-07-24T12:57:40.749Z,127.6
2018-07-24T12:58:42.296Z,128.1
2018-07-24T12:59:43.697Z,127.6
2018-07-24T13:00:45.248Z,127.6
2018-07-24T13:01:46.653Z,127.6
2018-07-24T13:02:48.205Z,127.1
2018-07-24T13:03:49.613Z,127.6
2018-07-24T13:04:51.128Z,128.1
2018-07-24T13:05:52.678Z,128.1
2018-07-24T13:06:53.914Z,127.6
2018-07-24T13:07:55.482Z,127.1
2018-07-24T13:08:56.907Z,127.6
2018-07-24T13:09:58.778Z,127.6
2018-07-24T13:11:00.331Z,127.1
2018-07-24T13:12:02.217Z,127.6
2018-07-24T13:13:03.780Z,128.1
2018-07-24T13:14:05.005Z,128.1
2018-07-24T13:15:06.565Z,127.6
2018-07-24T13:16:08.126Z,128.1
2018-07-24T13:17:09.533Z,128.1
2018-07-24T13:18:10.948Z,127.6
2018-07-24T13:19:12.331Z,127.6
2018-07-24T13:20:13.557Z,128.1